sensor_id;sensor_type;location;lat;lon;timestamp;temperature;humidity
52963;DHT22;38827;53.024;6.596;2023-08-07T00:02:06;15.50;84.80
52963;DHT22;38827;53.024;6.596;2023-08-07T00:04:32;15.50;84.70
52963;DHT22;38827;53.024;6.596;2023-08-07T00:06:58;15.50;84.70
52963;DHT22;38827;53.024;6.596;2023-08-07T00:09:23;15.50;84.80
52963;DHT22;38827;53.024;6.596;2023-08-07T00:11:52;15.50;84.80
52963;DHT22;38827;53.024;6.596;2023-08-07T00:14:18;15.50;84.80
52963;DHT22;38827;53.024;6.596;2023-08-07T00:16:45;15.50;84.80
52963;DHT22;38827;53.024;6.596;2023-08-07T00:19:11;15.50;84.80
52963;DHT22;38827;53.024;6.596;2023-08-07T00:21:37;15.50;84.80
52963;DHT22;38827;53.024;6.596;2023-08-07T00:24:13;15.50;84.60
52963;DHT22;38827;53.024;6.596;2023-08-07T00:26:39;15.50;84.50
52963;DHT22;38827;53.024;6.596;2023-08-07T00:29:04;15.50;84.50
52963;DHT22;38827;53.024;6.596;2023-08-07T00:31:30;15.50;84.50
52963;DHT22;38827;53.024;6.596;2023-08-07T00:33:57;15.50;84.50
52963;DHT22;38827;53.024;6.596;2023-08-07T00:36:23;15.50;84.40
52963;DHT22;38827;53.024;6.596;2023-08-07T00:38:50;15.40;84.40
52963;DHT22;38827;53.024;6.596;2023-08-07T00:41:20;15.40;84.40
52963;DHT22;38827;53.024;6.596;2023-08-07T00:43:46;15.40;84.50
52963;DHT22;38827;53.024;6.596;2023-08-07T00:46:11;15.30;84.60
52963;DHT22;38827;53.024;6.596;2023-08-07T00:48:37;15.30;84.50
52963;DHT22;38827;53.024;6.596;2023-08-07T00:51:04;15.30;84.50
52963;DHT22;38827;53.024;6.596;2023-08-07T00:53:33;15.20;84.60
52963;DHT22;38827;53.024;6.596;2023-08-07T00:56:03;15.10;84.60
52963;DHT22;38827;53.024;6.596;2023-08-07T00:58:29;15.10;84.70
52963;DHT22;38827;53.024;6.596;2023-08-07T01:00:55;15.00;84.80
52963;DHT22;38827;53.024;6.596;2023-08-07T01:03:26;15.00;84.80
52963;DHT22;38827;53.024;6.596;2023-08-07T01:05:52;15.00;85.00
52963;DHT22;38827;53.024;6.596;2023-08-07T01:08:17;14.90;85.10
52963;DHT22;38827;53.024;6.596;2023-08-07T01:19:23;14.70;85.30
52963;DHT22;38827;53.024;6.596;2023-08-07T01:22:11;14.70;85.20
52963;DHT22;38827;53.024;6.596;2023-08-07T01:24:38;14.70;85.30
52963;DHT22;38827;53.024;6.596;2023-08-07T01:30:29;14.60;85.40
52963;DHT22;38827;53.024;6.596;2023-08-07T01:33:09;14.60;85.30
52963;DHT22;38827;53.024;6.596;2023-08-07T01:35:40;14.50;85.50
52963;DHT22;38827;53.024;6.596;2023-08-07T01:38:07;14.50;85.60
52963;DHT22;38827;53.024;6.596;2023-08-07T01:40:34;14.50;85.50
52963;DHT22;38827;53.024;6.596;2023-08-07T01:43:02;14.40;85.50
52963;DHT22;38827;53.024;6.596;2023-08-07T01:45:28;14.50;85.60
52963;DHT22;38827;53.024;6.596;2023-08-07T01:47:57;14.40;85.70
52963;DHT22;38827;53.024;6.596;2023-08-07T01:50:24;14.40;85.80
52963;DHT22;38827;53.024;6.596;2023-08-07T01:52:50;14.40;86.00
52963;DHT22;38827;53.024;6.596;2023-08-07T01:55:17;14.40;86.00
52963;DHT22;38827;53.024;6.596;2023-08-07T01:57:43;14.40;86.10
52963;DHT22;38827;53.024;6.596;2023-08-07T02:00:09;14.30;86.50
52963;DHT22;38827;53.024;6.596;2023-08-07T02:02:36;14.30;86.20
52963;DHT22;38827;53.024;6.596;2023-08-07T02:05:02;14.30;86.20
52963;DHT22;38827;53.024;6.596;2023-08-07T02:07:28;14.30;86.30
52963;DHT22;38827;53.024;6.596;2023-08-07T02:09:54;14.30;86.40
52963;DHT22;38827;53.024;6.596;2023-08-07T02:12:20;14.30;86.60
52963;DHT22;38827;53.024;6.596;2023-08-07T02:14:47;14.30;86.70
52963;DHT22;38827;53.024;6.596;2023-08-07T02:17:15;14.30;86.80
52963;DHT22;38827;53.024;6.596;2023-08-07T02:19:41;14.30;86.90
52963;DHT22;38827;53.024;6.596;2023-08-07T02:22:07;14.30;87.00
52963;DHT22;38827;53.024;6.596;2023-08-07T02:24:32;14.30;87.10
52963;DHT22;38827;53.024;6.596;2023-08-07T02:26:58;14.30;87.10
52963;DHT22;38827;53.024;6.596;2023-08-07T02:29:24;14.30;87.30
52963;DHT22;38827;53.024;6.596;2023-08-07T02:31:50;14.30;87.30
52963;DHT22;38827;53.024;6.596;2023-08-07T02:34:15;14.30;87.40
52963;DHT22;38827;53.024;6.596;2023-08-07T02:36:41;14.30;87.40
52963;DHT22;38827;53.024;6.596;2023-08-07T02:39:07;14.20;87.40
52963;DHT22;38827;53.024;6.596;2023-08-07T02:41:32;14.30;87.40
52963;DHT22;38827;53.024;6.596;2023-08-07T02:43:58;14.20;87.40
52963;DHT22;38827;53.024;6.596;2023-08-07T02:46:28;14.30;87.40
52963;DHT22;38827;53.024;6.596;2023-08-07T02:48:54;14.20;87.40
52963;DHT22;38827;53.024;6.596;2023-08-07T02:51:20;14.20;87.50
52963;DHT22;38827;53.024;6.596;2023-08-07T02:53:45;14.20;87.40
52963;DHT22;38827;53.024;6.596;2023-08-07T02:56:11;14.20;87.40
52963;DHT22;38827;53.024;6.596;2023-08-07T02:58:38;14.20;87.40
52963;DHT22;38827;53.024;6.596;2023-08-07T03:01:07;14.20;87.40
52963;DHT22;38827;53.024;6.596;2023-08-07T03:03:33;14.20;87.40
52963;DHT22;38827;53.024;6.596;2023-08-07T03:05:59;14.10;87.40
52963;DHT22;38827;53.024;6.596;2023-08-07T03:08:24;14.10;87.50
52963;DHT22;38827;53.024;6.596;2023-08-07T03:10:55;14.10;87.60
52963;DHT22;38827;53.024;6.596;2023-08-07T03:13:21;14.10;87.80
52963;DHT22;38827;53.024;6.596;2023-08-07T03:15:47;14.10;88.10
52963;DHT22;38827;53.024;6.596;2023-08-07T03:20:57;14.10;88.20
52963;DHT22;38827;53.024;6.596;2023-08-07T03:23:26;14.20;88.30
52963;DHT22;38827;53.024;6.596;2023-08-07T03:26:06;14.20;88.30
52963;DHT22;38827;53.024;6.596;2023-08-07T03:28:35;14.20;88.20
52963;DHT22;38827;53.024;6.596;2023-08-07T03:31:04;14.30;88.30
52963;DHT22;38827;53.024;6.596;2023-08-07T03:37:28;14.30;88.20
52963;DHT22;38827;53.024;6.596;2023-08-07T03:39:57;14.30;88.10
52963;DHT22;38827;53.024;6.596;2023-08-07T03:42:22;14.30;88.30
52963;DHT22;38827;53.024;6.596;2023-08-07T03:44:54;14.40;88.00
52963;DHT22;38827;53.024;6.596;2023-08-07T03:50:28;14.40;88.10
52963;DHT22;38827;53.024;6.596;2023-08-07T03:52:56;14.30;88.00
52963;DHT22;38827;53.024;6.596;2023-08-07T03:55:50;14.30;88.10
52963;DHT22;38827;53.024;6.596;2023-08-07T03:58:16;14.30;88.10
52963;DHT22;38827;53.024;6.596;2023-08-07T04:00:42;14.30;88.40
52963;DHT22;38827;53.024;6.596;2023-08-07T04:03:16;14.30;88.70
52963;DHT22;38827;53.024;6.596;2023-08-07T04:05:59;14.40;88.80
52963;DHT22;38827;53.024;6.596;2023-08-07T04:11:17;14.40;89.20
52963;DHT22;38827;53.024;6.596;2023-08-07T04:13:42;14.40;89.40
52963;DHT22;38827;53.024;6.596;2023-08-07T04:39:24;14.70;89.70
52963;DHT22;38827;53.024;6.596;2023-08-07T04:41:59;14.60;89.60
52963;DHT22;38827;53.024;6.596;2023-08-07T04:44:40;14.60;89.80
52963;DHT22;38827;53.024;6.596;2023-08-07T04:47:11;14.60;89.90
52963;DHT22;38827;53.024;6.596;2023-08-07T04:49:50;14.60;90.00
52963;DHT22;38827;53.024;6.596;2023-08-07T04:52:25;14.60;90.10
52963;DHT22;38827;53.024;6.596;2023-08-07T04:54:50;14.60;90.20
52963;DHT22;38827;53.024;6.596;2023-08-07T05:01:27;14.70;90.10
52963;DHT22;38827;53.024;6.596;2023-08-07T05:03:56;14.70;90.10
52963;DHT22;38827;53.024;6.596;2023-08-07T05:06:22;14.70;90.10
52963;DHT22;38827;53.024;6.596;2023-08-07T05:08:53;14.70;90.00
52963;DHT22;38827;53.024;6.596;2023-08-07T05:11:31;14.80;89.90
52963;DHT22;38827;53.024;6.596;2023-08-07T05:13:57;14.80;89.50
52963;DHT22;38827;53.024;6.596;2023-08-07T05:16:23;14.80;89.50
52963;DHT22;38827;53.024;6.596;2023-08-07T05:18:49;14.80;89.40
52963;DHT22;38827;53.024;6.596;2023-08-07T05:21:14;14.80;89.30
52963;DHT22;38827;53.024;6.596;2023-08-07T05:23:40;14.70;89.40
52963;DHT22;38827;53.024;6.596;2023-08-07T05:26:13;14.70;89.50
52963;DHT22;38827;53.024;6.596;2023-08-07T05:29:01;14.70;89.60
52963;DHT22;38827;53.024;6.596;2023-08-07T05:31:27;14.70;89.60
52963;DHT22;38827;53.024;6.596;2023-08-07T05:34:13;14.70;89.70
52963;DHT22;38827;53.024;6.596;2023-08-07T05:36:55;14.70;89.70
52963;DHT22;38827;53.024;6.596;2023-08-07T05:39:53;14.70;89.60
52963;DHT22;38827;53.024;6.596;2023-08-07T05:42:18;14.70;89.80
52963;DHT22;38827;53.024;6.596;2023-08-07T05:44:47;14.70;89.80
52963;DHT22;38827;53.024;6.596;2023-08-07T05:58:58;14.80;89.30
52963;DHT22;38827;53.024;6.596;2023-08-07T06:01:34;14.80;89.30
52963;DHT22;38827;53.024;6.596;2023-08-07T06:04:14;14.90;89.00
52963;DHT22;38827;53.024;6.596;2023-08-07T06:07:05;15.10;88.70
52963;DHT22;38827;53.024;6.596;2023-08-07T06:09:37;15.20;88.10
52963;DHT22;38827;53.024;6.596;2023-08-07T06:12:03;15.30;87.40
52963;DHT22;38827;53.024;6.596;2023-08-07T06:14:29;15.30;86.80
52963;DHT22;38827;53.024;6.596;2023-08-07T06:16:55;15.30;86.40
52963;DHT22;38827;53.024;6.596;2023-08-07T06:19:25;15.30;86.30
52963;DHT22;38827;53.024;6.596;2023-08-07T06:22:34;15.40;86.30
52963;DHT22;38827;53.024;6.596;2023-08-07T06:25:00;15.40;85.90
52963;DHT22;38827;53.024;6.596;2023-08-07T06:27:41;15.40;86.00
52963;DHT22;38827;53.024;6.596;2023-08-07T06:30:07;15.40;85.70
52963;DHT22;38827;53.024;6.596;2023-08-07T06:32:33;15.40;85.70
52963;DHT22;38827;53.024;6.596;2023-08-07T06:34:59;15.40;85.50
52963;DHT22;38827;53.024;6.596;2023-08-07T06:37:24;15.40;85.10
52963;DHT22;38827;53.024;6.596;2023-08-07T06:39:51;15.30;85.00
52963;DHT22;38827;53.024;6.596;2023-08-07T06:43:00;15.30;84.80
52963;DHT22;38827;53.024;6.596;2023-08-07T06:45:48;15.30;85.00
52963;DHT22;38827;53.024;6.596;2023-08-07T06:57:46;15.50;85.10
52963;DHT22;38827;53.024;6.596;2023-08-07T07:00:12;15.60;84.70
52963;DHT22;38827;53.024;6.596;2023-08-07T07:13:39;15.90;83.50
52963;DHT22;38827;53.024;6.596;2023-08-07T07:35:11;16.30;79.40
52963;DHT22;38827;53.024;6.596;2023-08-07T07:41:07;16.30;77.70
52963;DHT22;38827;53.024;6.596;2023-08-07T07:50:45;16.20;78.10
52963;DHT22;38827;53.024;6.596;2023-08-07T07:54:28;16.00;77.50
52963;DHT22;38827;53.024;6.596;2023-08-07T07:57:16;15.50;78.70
52963;DHT22;38827;53.024;6.596;2023-08-07T08:11:59;15.60;81.20
52963;DHT22;38827;53.024;6.596;2023-08-07T08:17:50;16.20;79.40
52963;DHT22;38827;53.024;6.596;2023-08-07T08:54:05;15.90;78.80
52963;DHT22;38827;53.024;6.596;2023-08-07T08:56:34;16.20;78.00
52963;DHT22;38827;53.024;6.596;2023-08-07T08:59:06;16.50;78.00
52963;DHT22;38827;53.024;6.596;2023-08-07T09:01:38;16.90;76.20
52963;DHT22;38827;53.024;6.596;2023-08-07T09:04:10;17.20;74.90
52963;DHT22;38827;53.024;6.596;2023-08-07T09:06:52;17.50;74.10
52963;DHT22;38827;53.024;6.596;2023-08-07T09:26:01;19.90;57.60
52963;DHT22;38827;53.024;6.596;2023-08-07T09:28:28;19.90;59.60
52963;DHT22;38827;53.024;6.596;2023-08-07T09:30:55;19.90;58.80
52963;DHT22;38827;53.024;6.596;2023-08-07T09:33:25;19.80;58.50
52963;DHT22;38827;53.024;6.596;2023-08-07T09:35:51;19.50;58.90
52963;DHT22;38827;53.024;6.596;2023-08-07T09:38:16;19.70;58.60
52963;DHT22;38827;53.024;6.596;2023-08-07T09:40:42;20.30;55.90
52963;DHT22;38827;53.024;6.596;2023-08-07T09:43:08;20.60;54.50
52963;DHT22;38827;53.024;6.596;2023-08-07T09:45:34;20.60;54.10
52963;DHT22;38827;53.024;6.596;2023-08-07T09:48:03;20.20;54.30
52963;DHT22;38827;53.024;6.596;2023-08-07T09:50:32;19.40;55.80
52963;DHT22;38827;53.024;6.596;2023-08-07T09:52:58;18.70;58.30
52963;DHT22;38827;53.024;6.596;2023-08-07T09:55:28;18.40;60.10
52963;DHT22;38827;53.024;6.596;2023-08-07T09:57:54;18.80;59.10
52963;DHT22;38827;53.024;6.596;2023-08-07T10:00:20;19.30;57.80
52963;DHT22;38827;53.024;6.596;2023-08-07T10:02:51;19.90;57.00
52963;DHT22;38827;53.024;6.596;2023-08-07T10:19:06;20.10;52.80
52963;DHT22;38827;53.024;6.596;2023-08-07T10:21:40;19.10;54.60
52963;DHT22;38827;53.024;6.596;2023-08-07T10:30:45;19.20;55.20
52963;DHT22;38827;53.024;6.596;2023-08-07T10:37:07;20.90;49.90
52963;DHT22;38827;53.024;6.596;2023-08-07T10:43:17;20.10;52.00
52963;DHT22;38827;53.024;6.596;2023-08-07T10:45:49;19.50;53.80
52963;DHT22;38827;53.024;6.596;2023-08-07T10:48:18;19.10;54.40
52963;DHT22;38827;53.024;6.596;2023-08-07T10:50:57;18.90;55.60
52963;DHT22;38827;53.024;6.596;2023-08-07T10:54:18;18.70;54.10
52963;DHT22;38827;53.024;6.596;2023-08-07T10:56:56;18.50;54.50
52963;DHT22;38827;53.024;6.596;2023-08-07T10:59:30;18.80;55.10
52963;DHT22;38827;53.024;6.596;2023-08-07T11:01:56;19.80;54.90
52963;DHT22;38827;53.024;6.596;2023-08-07T11:04:22;20.90;52.00
52963;DHT22;38827;53.024;6.596;2023-08-07T11:07:09;21.40;50.20
52963;DHT22;38827;53.024;6.596;2023-08-07T11:09:42;21.80;50.10
52963;DHT22;38827;53.024;6.596;2023-08-07T11:12:07;21.60;49.20
52963;DHT22;38827;53.024;6.596;2023-08-07T11:14:33;21.30;50.00
52963;DHT22;38827;53.024;6.596;2023-08-07T11:16:59;21.60;49.10
52963;DHT22;38827;53.024;6.596;2023-08-07T11:19:25;21.90;48.90
52963;DHT22;38827;53.024;6.596;2023-08-07T11:21:53;22.50;48.40
52963;DHT22;38827;53.024;6.596;2023-08-07T11:24:19;22.30;47.50
52963;DHT22;38827;53.024;6.596;2023-08-07T11:26:47;21.70;48.00
52963;DHT22;38827;53.024;6.596;2023-08-07T11:29:17;21.00;48.80
52963;DHT22;38827;53.024;6.596;2023-08-07T11:31:43;20.50;50.40
52963;DHT22;38827;53.024;6.596;2023-08-07T11:34:10;20.20;51.00
52963;DHT22;38827;53.024;6.596;2023-08-07T11:52:31;19.40;52.40
52963;DHT22;38827;53.024;6.596;2023-08-07T11:55:09;19.30;52.50
52963;DHT22;38827;53.024;6.596;2023-08-07T11:57:38;19.20;52.60
52963;DHT22;38827;53.024;6.596;2023-08-07T12:00:08;19.30;53.90
52963;DHT22;38827;53.024;6.596;2023-08-07T12:10:24;20.10;53.20
52963;DHT22;38827;53.024;6.596;2023-08-07T12:13:13;20.30;53.10
52963;DHT22;38827;53.024;6.596;2023-08-07T12:15:53;20.40;51.90
52963;DHT22;38827;53.024;6.596;2023-08-07T12:18:27;20.30;52.40
52963;DHT22;38827;53.024;6.596;2023-08-07T12:21:13;20.10;53.20
52963;DHT22;38827;53.024;6.596;2023-08-07T12:23:39;19.90;53.50
52963;DHT22;38827;53.024;6.596;2023-08-07T12:29:39;19.10;56.30
52963;DHT22;38827;53.024;6.596;2023-08-07T12:32:05;18.70;58.50
52963;DHT22;38827;53.024;6.596;2023-08-07T12:34:40;18.90;59.30
52963;DHT22;38827;53.024;6.596;2023-08-07T12:37:40;19.00;59.20
52963;DHT22;38827;53.024;6.596;2023-08-07T12:40:27;19.60;58.60
52963;DHT22;38827;53.024;6.596;2023-08-07T12:42:57;20.30;56.80
52963;DHT22;38827;53.024;6.596;2023-08-07T12:55:48;23.00;50.60
52963;DHT22;38827;53.024;6.596;2023-08-07T13:05:52;22.90;50.10
52963;DHT22;38827;53.024;6.596;2023-08-07T13:15:38;21.90;50.50
52963;DHT22;38827;53.024;6.596;2023-08-07T13:18:36;21.50;51.70
52963;DHT22;38827;53.024;6.596;2023-08-07T13:21:17;21.60;50.30
52963;DHT22;38827;53.024;6.596;2023-08-07T13:26:55;21.00;51.10
52963;DHT22;38827;53.024;6.596;2023-08-07T13:32:40;19.80;53.50
52963;DHT22;38827;53.024;6.596;2023-08-07T13:35:08;19.70;53.60
52963;DHT22;38827;53.024;6.596;2023-08-07T13:37:34;19.70;53.60
52963;DHT22;38827;53.024;6.596;2023-08-07T13:40:04;19.50;53.90
52963;DHT22;38827;53.024;6.596;2023-08-07T13:42:30;19.40;54.40
52963;DHT22;38827;53.024;6.596;2023-08-07T13:44:57;19.30;54.40
52963;DHT22;38827;53.024;6.596;2023-08-07T13:47:23;19.30;54.20
52963;DHT22;38827;53.024;6.596;2023-08-07T13:49:52;19.30;54.40
52963;DHT22;38827;53.024;6.596;2023-08-07T13:52:19;19.50;54.10
52963;DHT22;38827;53.024;6.596;2023-08-07T13:55:00;20.10;54.00
52963;DHT22;38827;53.024;6.596;2023-08-07T13:57:29;20.60;52.70
52963;DHT22;38827;53.024;6.596;2023-08-07T14:00:01;20.90;51.50
52963;DHT22;38827;53.024;6.596;2023-08-07T14:02:43;20.70;51.30
52963;DHT22;38827;53.024;6.596;2023-08-07T14:22:19;20.90;51.20
52963;DHT22;38827;53.024;6.596;2023-08-07T14:24:51;20.70;51.40
52963;DHT22;38827;53.024;6.596;2023-08-07T14:41:36;19.40;53.50
52963;DHT22;38827;53.024;6.596;2023-08-07T14:48:00;19.40;52.80
52963;DHT22;38827;53.024;6.596;2023-08-07T14:51:13;19.20;51.90
52963;DHT22;38827;53.024;6.596;2023-08-07T15:00:54;18.80;52.30
52963;DHT22;38827;53.024;6.596;2023-08-07T15:03:23;18.50;52.60
52963;DHT22;38827;53.024;6.596;2023-08-07T15:06:07;18.40;53.80
52963;DHT22;38827;53.024;6.596;2023-08-07T15:08:45;18.50;53.90
52963;DHT22;38827;53.024;6.596;2023-08-07T15:11:13;18.60;54.10
52963;DHT22;38827;53.024;6.596;2023-08-07T15:13:50;18.60;53.70
52963;DHT22;38827;53.024;6.596;2023-08-07T15:16:31;18.70;53.50
52963;DHT22;38827;53.024;6.596;2023-08-07T15:31:20;19.00;52.40
52963;DHT22;38827;53.024;6.596;2023-08-07T15:34:01;18.90;53.00
52963;DHT22;38827;53.024;6.596;2023-08-07T15:43:44;18.70;51.80
52963;DHT22;38827;53.024;6.596;2023-08-07T15:46:22;18.50;53.10
52963;DHT22;38827;53.024;6.596;2023-08-07T15:48:48;18.40;52.80
52963;DHT22;38827;53.024;6.596;2023-08-07T15:51:17;18.40;53.30
52963;DHT22;38827;53.024;6.596;2023-08-07T15:53:43;18.30;53.50
52963;DHT22;38827;53.024;6.596;2023-08-07T15:56:09;18.30;53.80
52963;DHT22;38827;53.024;6.596;2023-08-07T15:58:35;18.30;53.60
52963;DHT22;38827;53.024;6.596;2023-08-07T16:01:04;18.30;53.50
52963;DHT22;38827;53.024;6.596;2023-08-07T16:03:29;18.30;53.80
52963;DHT22;38827;53.024;6.596;2023-08-07T16:05:55;18.30;54.10
52963;DHT22;38827;53.024;6.596;2023-08-07T16:08:21;18.30;54.40
52963;DHT22;38827;53.024;6.596;2023-08-07T16:10:47;18.20;55.00
52963;DHT22;38827;53.024;6.596;2023-08-07T16:13:12;18.20;54.80
52963;DHT22;38827;53.024;6.596;2023-08-07T16:15:39;18.10;54.30
52963;DHT22;38827;53.024;6.596;2023-08-07T16:18:07;18.00;54.10
52963;DHT22;38827;53.024;6.596;2023-08-07T16:20:35;17.90;53.90
52963;DHT22;38827;53.024;6.596;2023-08-07T16:23:04;17.70;54.00
52963;DHT22;38827;53.024;6.596;2023-08-07T16:25:30;17.70;54.40
52963;DHT22;38827;53.024;6.596;2023-08-07T16:27:55;17.60;54.90
52963;DHT22;38827;53.024;6.596;2023-08-07T16:30:21;17.60;55.00
52963;DHT22;38827;53.024;6.596;2023-08-07T16:32:47;17.60;55.10
52963;DHT22;38827;53.024;6.596;2023-08-07T16:35:13;17.50;55.50
52963;DHT22;38827;53.024;6.596;2023-08-07T16:37:42;17.40;56.00
52963;DHT22;38827;53.024;6.596;2023-08-07T16:40:10;17.40;56.20
52963;DHT22;38827;53.024;6.596;2023-08-07T16:42:36;17.40;56.20
52963;DHT22;38827;53.024;6.596;2023-08-07T16:45:02;17.40;56.40
52963;DHT22;38827;53.024;6.596;2023-08-07T16:47:29;17.40;56.50
52963;DHT22;38827;53.024;6.596;2023-08-07T16:49:54;17.40;56.60
52963;DHT22;38827;53.024;6.596;2023-08-07T16:52:21;17.40;56.40
52963;DHT22;38827;53.024;6.596;2023-08-07T16:54:51;17.40;56.00
52963;DHT22;38827;53.024;6.596;2023-08-07T16:57:20;17.30;55.80
52963;DHT22;38827;53.024;6.596;2023-08-07T16:59:46;17.30;56.00
52963;DHT22;38827;53.024;6.596;2023-08-07T17:02:12;17.40;56.00
52963;DHT22;38827;53.024;6.596;2023-08-07T17:04:38;17.50;56.10
52963;DHT22;38827;53.024;6.596;2023-08-07T17:07:05;17.60;56.20
52963;DHT22;38827;53.024;6.596;2023-08-07T17:09:31;17.60;55.90
52963;DHT22;38827;53.024;6.596;2023-08-07T17:11:57;17.60;55.80
52963;DHT22;38827;53.024;6.596;2023-08-07T17:14:24;17.60;55.90
52963;DHT22;38827;53.024;6.596;2023-08-07T17:16:51;17.60;56.20
52963;DHT22;38827;53.024;6.596;2023-08-07T17:19:20;17.60;56.30
52963;DHT22;38827;53.024;6.596;2023-08-07T17:22:18;17.50;56.70
52963;DHT22;38827;53.024;6.596;2023-08-07T17:38:27;17.10;57.50
52963;DHT22;38827;53.024;6.596;2023-08-07T17:41:05;16.90;58.10
52963;DHT22;38827;53.024;6.596;2023-08-07T17:47:28;16.90;58.40
52963;DHT22;38827;53.024;6.596;2023-08-07T17:53:40;16.80;58.30
52963;DHT22;38827;53.024;6.596;2023-08-07T17:56:27;16.70;58.70
52963;DHT22;38827;53.024;6.596;2023-08-07T17:58:53;16.70;58.50
52963;DHT22;38827;53.024;6.596;2023-08-07T18:01:22;16.60;59.00
52963;DHT22;38827;53.024;6.596;2023-08-07T18:03:49;16.60;59.30
52963;DHT22;38827;53.024;6.596;2023-08-07T18:06:30;16.50;59.40
52963;DHT22;38827;53.024;6.596;2023-08-07T18:08:56;16.50;59.80
52963;DHT22;38827;53.024;6.596;2023-08-07T18:11:31;16.40;60.10
52963;DHT22;38827;53.024;6.596;2023-08-07T18:13:57;16.40;60.30
52963;DHT22;38827;53.024;6.596;2023-08-07T18:16:23;16.30;60.50
52963;DHT22;38827;53.024;6.596;2023-08-07T18:18:50;16.30;60.60
52963;DHT22;38827;53.024;6.596;2023-08-07T18:21:16;16.30;60.50
52963;DHT22;38827;53.024;6.596;2023-08-07T18:23:43;16.20;60.50
52963;DHT22;38827;53.024;6.596;2023-08-07T18:26:08;16.20;60.60
52963;DHT22;38827;53.024;6.596;2023-08-07T18:28:34;16.10;60.80
52963;DHT22;38827;53.024;6.596;2023-08-07T18:33:37;16.00;61.10
52963;DHT22;38827;53.024;6.596;2023-08-07T18:36:08;16.00;61.00
52963;DHT22;38827;53.024;6.596;2023-08-07T18:38:37;15.90;61.20
52963;DHT22;38827;53.024;6.596;2023-08-07T18:41:02;15.90;61.50
52963;DHT22;38827;53.024;6.596;2023-08-07T18:43:33;15.80;61.70
52963;DHT22;38827;53.024;6.596;2023-08-07T18:46:08;15.80;61.90
52963;DHT22;38827;53.024;6.596;2023-08-07T18:48:41;15.70;62.10
52963;DHT22;38827;53.024;6.596;2023-08-07T18:58:44;15.50;62.70
52963;DHT22;38827;53.024;6.596;2023-08-07T19:01:10;15.40;62.90
52963;DHT22;38827;53.024;6.596;2023-08-07T19:03:37;15.40;63.00
52963;DHT22;38827;53.024;6.596;2023-08-07T19:06:02;15.30;63.20
52963;DHT22;38827;53.024;6.596;2023-08-07T19:08:34;15.30;63.30
52963;DHT22;38827;53.024;6.596;2023-08-07T19:11:00;15.20;63.40
52963;DHT22;38827;53.024;6.596;2023-08-07T19:13:26;15.20;63.70
52963;DHT22;38827;53.024;6.596;2023-08-07T19:15:52;15.10;63.80
52963;DHT22;38827;53.024;6.596;2023-08-07T19:21:01;15.10;64.30
52963;DHT22;38827;53.024;6.596;2023-08-07T19:23:33;15.00;64.60
52963;DHT22;38827;53.024;6.596;2023-08-07T19:26:02;14.90;64.90
52963;DHT22;38827;53.024;6.596;2023-08-07T19:28:29;14.90;65.00
52963;DHT22;38827;53.024;6.596;2023-08-07T19:30:56;14.80;65.20
52963;DHT22;38827;53.024;6.596;2023-08-07T19:33:21;14.70;65.30
52963;DHT22;38827;53.024;6.596;2023-08-07T19:35:47;14.70;65.50
52963;DHT22;38827;53.024;6.596;2023-08-07T19:38:13;14.70;65.70
52963;DHT22;38827;53.024;6.596;2023-08-07T19:40:40;14.60;65.80
52963;DHT22;38827;53.024;6.596;2023-08-07T19:43:05;14.60;65.80
52963;DHT22;38827;53.024;6.596;2023-08-07T19:45:31;14.60;66.10
52963;DHT22;38827;53.024;6.596;2023-08-07T19:47:57;14.50;66.30
52963;DHT22;38827;53.024;6.596;2023-08-07T19:50:24;14.50;66.50
52963;DHT22;38827;53.024;6.596;2023-08-07T19:52:50;14.40;66.60
52963;DHT22;38827;53.024;6.596;2023-08-07T19:55:17;14.40;66.70
52963;DHT22;38827;53.024;6.596;2023-08-07T19:57:43;14.30;67.00
52963;DHT22;38827;53.024;6.596;2023-08-07T20:00:10;14.30;67.20
52963;DHT22;38827;53.024;6.596;2023-08-07T20:02:37;14.20;67.40
52963;DHT22;38827;53.024;6.596;2023-08-07T20:05:03;14.20;67.60
52963;DHT22;38827;53.024;6.596;2023-08-07T20:07:31;14.20;67.80
52963;DHT22;38827;53.024;6.596;2023-08-07T20:09:57;14.10;68.00
52963;DHT22;38827;53.024;6.596;2023-08-07T20:12:23;14.10;68.20
52963;DHT22;38827;53.024;6.596;2023-08-07T20:14:49;14.10;68.20
52963;DHT22;38827;53.024;6.596;2023-08-07T20:17:14;14.00;68.50
52963;DHT22;38827;53.024;6.596;2023-08-07T20:19:40;14.00;68.70
52963;DHT22;38827;53.024;6.596;2023-08-07T20:22:06;14.00;68.80
52963;DHT22;38827;53.024;6.596;2023-08-07T20:24:32;14.00;68.80
52963;DHT22;38827;53.024;6.596;2023-08-07T20:26:58;14.00;69.00
52963;DHT22;38827;53.024;6.596;2023-08-07T20:29:25;13.90;69.10
52963;DHT22;38827;53.024;6.596;2023-08-07T20:31:54;13.90;69.20
52963;DHT22;38827;53.024;6.596;2023-08-07T20:34:23;13.90;69.40
52963;DHT22;38827;53.024;6.596;2023-08-07T20:36:49;13.90;69.50
52963;DHT22;38827;53.024;6.596;2023-08-07T20:39:14;13.90;69.60
52963;DHT22;38827;53.024;6.596;2023-08-07T20:41:40;13.90;69.80
52963;DHT22;38827;53.024;6.596;2023-08-07T20:44:06;13.90;70.00
52963;DHT22;38827;53.024;6.596;2023-08-07T20:46:32;13.80;70.10
52963;DHT22;38827;53.024;6.596;2023-08-07T20:48:58;13.80;70.50
52963;DHT22;38827;53.024;6.596;2023-08-07T20:51:23;13.80;70.70
52963;DHT22;38827;53.024;6.596;2023-08-07T20:53:49;13.80;70.90
52963;DHT22;38827;53.024;6.596;2023-08-07T20:56:15;13.80;71.10
52963;DHT22;38827;53.024;6.596;2023-08-07T20:58:40;13.80;71.40
52963;DHT22;38827;53.024;6.596;2023-08-07T21:01:06;13.80;71.60
52963;DHT22;38827;53.024;6.596;2023-08-07T21:03:33;13.80;71.80
52963;DHT22;38827;53.024;6.596;2023-08-07T21:05:59;13.80;72.00
52963;DHT22;38827;53.024;6.596;2023-08-07T21:08:25;13.80;72.20
52963;DHT22;38827;53.024;6.596;2023-08-07T21:10:51;13.70;72.40
52963;DHT22;38827;53.024;6.596;2023-08-07T21:13:20;13.70;72.60
52963;DHT22;38827;53.024;6.596;2023-08-07T21:15:49;13.70;72.90
52963;DHT22;38827;53.024;6.596;2023-08-07T21:18:14;13.70;73.10
52963;DHT22;38827;53.024;6.596;2023-08-07T21:20:40;13.60;73.30
52963;DHT22;38827;53.024;6.596;2023-08-07T21:23:06;13.60;73.70
52963;DHT22;38827;53.024;6.596;2023-08-07T21:25:37;13.60;73.70
52963;DHT22;38827;53.024;6.596;2023-08-07T21:28:03;13.60;73.90
52963;DHT22;38827;53.024;6.596;2023-08-07T21:30:38;13.60;74.20
52963;DHT22;38827;53.024;6.596;2023-08-07T21:33:05;13.60;74.50
52963;DHT22;38827;53.024;6.596;2023-08-07T21:35:31;14.00;73.70
52963;DHT22;38827;53.024;6.596;2023-08-07T21:38:03;13.50;74.70
52963;DHT22;38827;53.024;6.596;2023-08-07T21:40:28;13.50;74.90
52963;DHT22;38827;53.024;6.596;2023-08-07T21:42:54;13.50;75.00
52963;DHT22;38827;53.024;6.596;2023-08-07T21:45:20;13.40;75.30
52963;DHT22;38827;53.024;6.596;2023-08-07T21:47:46;13.40;75.40
52963;DHT22;38827;53.024;6.596;2023-08-07T21:50:11;13.40;75.60